Relevés horaires Eggishorn (Suisse)


Relevés horaires à Eggishorn - Lundi 27 Nov. 2017
Heure UTC1 Température [°C] Vent [km/h] Hum. [%] Pres.4 [hPa] Visi. [Km] Nébu. [octa] Préc.5 [mm] Cond.
2m. Res. Ros. Dir.2 Vit. Moy. Raf.3
23:00 -6.4 -14.3 -7.6 OSO 25.9 -- 33.3 91 700(-0.7/3h) -- -- -- --
22:00 -6.8 -14.2 -8.1 OSO 22.2 -- 35.2 90 700(-0.7/3h) -- -- -- --
21:00 -6.2 -13.1 -8.9 OSO 20.4 -- 35.2 81 700(-0.5/3h) -- -- -- --
20:00 -6.9 -14.3 -9.1 O 22.2 -- 33.3 84 700(-0.6/3h) -- -- -- --
19:00 -6.9 -14 -9.6 OSO 20.4 -- 33.3 81 700(-0.2/3h) -- -- -- --
18:00 -7.0 -14.8 -10.0 OSO 24.1 -- 50.0 79 700(0.0/3h) -- -- -- --
17:00 -7.6 -15.5 -11.8 OSO 24.1 -- 37.0 72 700(0.3/3h) -- -- -- --
16:00 -8.6 -16.8 -13.5 OSO 24.1 -- 37.0 68 700(0.0/3h) -- -- -- --
15:00 -8.4 -16.6 -14.4 OSO 24.1 -- 50.0 62 700(-0.3/3h) -- -- -- --
14:00 -10.5 -18.6 -15.3 O 20.4 -- 50.0 68 700(-0.7/3h) -- -- -- --
13:00 -10.2 -17.4 -16.0 OSO 16.7 -- 44.4 62 700(-0.6/3h) -- -- -- --
12:00 -11.2 -19.8 -16.5 OSO 22.2 -- 38.9 65 700(0.0/3h) -- -- -- --
11:00 -11.1 -20.6 -17.7 OSO 27.8 -- 38.9 58 700(0.7/3h) -- -- -- --
10:00 -11.4 -19.3 -18.6 OSO 18.5 -- 35.2 55 700(1.1/3h) -- -- -- --
09:00 -13.0 -19.9 -20.4 SO 13.0 -- 27.8 54 700(0.8/3h) -- -- -- --
08:00 -11.4 -16.7 -23.3 NO 9.3 -- 25.9 36 700(0.6/3h) -- -- -- --
07:00 -13.7 -19.4 -22.4 O 9.3 -- 27.8 48 700(0.2/3h) -- -- -- --
06:00 -13.9 -19.6 -23.0 NE 9.3 -- 35.2 46 700(0.3/3h) -- -- -- --
05:00 -15.1 -21.8 -21.8 NNO 11.1 -- 35.2 56 700(0.1/3h) -- -- -- --
04:00 -15.0 -21.7 -23.3 OSO 11.1 -- 29.6 49 700(0.4/3h) -- -- -- --
03:00 -15.0 -21.7 -22.8 S 11.1 -- 20.4 51 700(0.2/3h) -- -- -- --
02:00 -15.5 -19.6 -21.5 SO 5.6 -- 18.5 60 700(0.2/3h) -- -- -- --
01:00 -16.7 -22 -19.2 SO 7.4 -- 18.5 81 700(0.1/3h) -- -- -- --
00:00 -16.4 -23.3 -18.9 OSO 11.1 -- 63.0 81 700(0.3/3h) -- -- -- --

1 Coordinated Universal Time. Actuellement il est 08:00 locale et 06:00 UTC.

2 Le vent souffle depuis la direction indiquée vers la direction oposée.

3 Les rafales max. sont disponible 40 min après l'heure du relevé.

4 Pour les stations d'altitude (plus de 600m) le géopotentiel du niveau le plus proche de la pression obligatoire est indiqué.

5 Les stations disposant d'un diffuseur peuvent indiquer "trace". Cela signifie que des précipitations ont touchés le sol mais que la quantité est inférieure à 0.1 mm.

Copyright

Les données affichées sur cette page sont la propriété exclusive de Météo Suisse.

Récapitulatif de la journée
Température [°C] Vent [km/h] Ensoleillement4 [h] Precipitations totale5 [mm] Pression [Hpa]
Min1 Max.2 Moy.3 Max. Min Max.
-17.1 -7.3 0 63.0 7 h 24 min 0 700.0 700.0

1 Température minimale relevée entre 18:00 UTC la veille et 18:00 UTC le jour donné.

2 Température maximale relevée entre 06:00 UTC le jour donné et 06:00 UTC le lendemain.

3 Vent moyen de la journée basé sur les relevés horaires.

4 Ensoleillement en heures relevé entre 06:00 UTC la veille et 06:00 UTC le jour donné.

5 Précipitations totales tombées entre 06:00 UTC la jour donné et 06:00 UTC le lendemain.

Graphiques horaires